Terminal Aerodrome Forecast
Issued by NWS

Home | Current Version | Previous Version | Text Only | Print | Product List | Glossary On
Versions: 1 2 3 4 5 6 7 8 9 10 11 12 13 14 15 16 17 18 19 20
871
FTUS41 KAKQ 112320
TAFPHF
TAF
KPHF 112320Z 1200/1224 17004KT P6SM SKC
     FM120900 20009KT P6SM SCT250
     FM121500 24012KT P6SM SCT250
     FM121600 24013G20KT P6SM BKN090
     FM122000 28015G23KT P6SM BKN050=

USA.gov is the U.S. government's official web portal to all federal, state and local government web resources and services.